sensor_id;sensor_type;location;lat;lon;timestamp;P1;durP1;ratioP1;P2;durP2;ratioP2
33862;SDS011;20158;51.436;-2.742;2023-02-27T00:02:21;3.67;;;2.30;;
33862;SDS011;20158;51.436;-2.742;2023-02-27T00:04:48;5.25;;;2.63;;
33862;SDS011;20158;51.436;-2.742;2023-02-27T00:07:14;3.80;;;2.72;;
33862;SDS011;20158;51.436;-2.742;2023-02-27T00:09:40;4.07;;;2.35;;
33862;SDS011;20158;51.436;-2.742;2023-02-27T00:12:07;3.10;;;2.25;;
33862;SDS011;20158;51.436;-2.742;2023-02-27T00:14:34;3.95;;;3.20;;
33862;SDS011;20158;51.436;-2.742;2023-02-27T00:17:00;3.83;;;2.72;;
33862;SDS011;20158;51.436;-2.742;2023-02-27T00:19:26;4.95;;;2.58;;
33862;SDS011;20158;51.436;-2.742;2023-02-27T00:21:52;5.95;;;2.60;;
33862;SDS011;20158;51.436;-2.742;2023-02-27T00:24:18;5.45;;;2.47;;
33862;SDS011;20158;51.436;-2.742;2023-02-27T00:26:44;4.75;;;2.72;;
33862;SDS011;20158;51.436;-2.742;2023-02-27T00:29:10;5.85;;;3.00;;
33862;SDS011;20158;51.436;-2.742;2023-02-27T00:31:36;4.03;;;2.58;;
33862;SDS011;20158;51.436;-2.742;2023-02-27T00:34:02;3.92;;;2.90;;
33862;SDS011;20158;51.436;-2.742;2023-02-27T00:36:28;7.50;;;2.60;;
33862;SDS011;20158;51.436;-2.742;2023-02-27T00:38:56;4.93;;;3.10;;
33862;SDS011;20158;51.436;-2.742;2023-02-27T00:41:24;3.53;;;2.50;;
33862;SDS011;20158;51.436;-2.742;2023-02-27T00:43:50;5.72;;;3.03;;
33862;SDS011;20158;51.436;-2.742;2023-02-27T00:46:16;4.18;;;2.65;;
33862;SDS011;20158;51.436;-2.742;2023-02-27T00:48:44;4.00;;;2.58;;
33862;SDS011;20158;51.436;-2.742;2023-02-27T00:51:10;6.05;;;3.08;;
33862;SDS011;20158;51.436;-2.742;2023-02-27T00:53:35;3.05;;;2.60;;
33862;SDS011;20158;51.436;-2.742;2023-02-27T00:56:01;6.05;;;3.53;;
33862;SDS011;20158;51.436;-2.742;2023-02-27T00:58:27;4.35;;;3.25;;
33862;SDS011;20158;51.436;-2.742;2023-02-27T01:00:53;5.00;;;3.03;;
33862;SDS011;20158;51.436;-2.742;2023-02-27T01:03:19;5.97;;;2.95;;
33862;SDS011;20158;51.436;-2.742;2023-02-27T01:05:45;7.03;;;3.45;;
33862;SDS011;20158;51.436;-2.742;2023-02-27T01:08:11;3.70;;;2.70;;
33862;SDS011;20158;51.436;-2.742;2023-02-27T01:10:37;4.30;;;2.65;;
33862;SDS011;20158;51.436;-2.742;2023-02-27T01:13:05;6.57;;;2.95;;
33862;SDS011;20158;51.436;-2.742;2023-02-27T01:15:32;5.47;;;2.78;;
33862;SDS011;20158;51.436;-2.742;2023-02-27T01:17:58;7.03;;;3.10;;
33862;SDS011;20158;51.436;-2.742;2023-02-27T01:20:24;3.67;;;2.50;;
33862;SDS011;20158;51.436;-2.742;2023-02-27T01:22:50;5.40;;;2.85;;
33862;SDS011;20158;51.436;-2.742;2023-02-27T01:25:16;6.57;;;2.80;;
33862;SDS011;20158;51.436;-2.742;2023-02-27T01:27:42;4.43;;;3.00;;
33862;SDS011;20158;51.436;-2.742;2023-02-27T01:30:08;5.15;;;2.75;;
33862;SDS011;20158;51.436;-2.742;2023-02-27T01:32:36;3.90;;;2.70;;
33862;SDS011;20158;51.436;-2.742;2023-02-27T01:35:03;9.32;;;3.50;;
33862;SDS011;20158;51.436;-2.742;2023-02-27T01:37:29;6.28;;;2.65;;
33862;SDS011;20158;51.436;-2.742;2023-02-27T01:39:55;6.32;;;3.05;;
33862;SDS011;20158;51.436;-2.742;2023-02-27T01:42:24;4.70;;;2.60;;
33862;SDS011;20158;51.436;-2.742;2023-02-27T01:45:36;5.95;;;2.78;;
33862;SDS011;20158;51.436;-2.742;2023-02-27T01:47:59;5.45;;;3.33;;
33862;SDS011;20158;51.436;-2.742;2023-02-27T01:50:35;5.65;;;2.80;;
33862;SDS011;20158;51.436;-2.742;2023-02-27T01:53:06;5.55;;;3.03;;
33862;SDS011;20158;51.436;-2.742;2023-02-27T01:55:34;4.68;;;3.08;;
33862;SDS011;20158;51.436;-2.742;2023-02-27T01:58:03;4.95;;;2.97;;
33862;SDS011;20158;51.436;-2.742;2023-02-27T02:00:31;5.10;;;2.88;;
33862;SDS011;20158;51.436;-2.742;2023-02-27T02:03:07;7.55;;;3.95;;
33862;SDS011;20158;51.436;-2.742;2023-02-27T02:05:39;6.22;;;3.25;;
33862;SDS011;20158;51.436;-2.742;2023-02-27T02:08:07;4.05;;;2.83;;
33862;SDS011;20158;51.436;-2.742;2023-02-27T02:10:33;6.03;;;3.40;;
33862;SDS011;20158;51.436;-2.742;2023-02-27T02:13:02;6.05;;;3.28;;
33862;SDS011;20158;51.436;-2.742;2023-02-27T02:15:30;7.00;;;3.03;;
33862;SDS011;20158;51.436;-2.742;2023-02-27T02:21:04;5.18;;;3.22;;
33862;SDS011;20158;51.436;-2.742;2023-02-27T02:26:46;4.53;;;3.20;;
33862;SDS011;20158;51.436;-2.742;2023-02-27T02:38:10;10.73;;;4.28;;
33862;SDS011;20158;51.436;-2.742;2023-02-27T02:41:23;7.38;;;4.20;;
33862;SDS011;20158;51.436;-2.742;2023-02-27T02:49:16;5.50;;;3.42;;
33862;SDS011;20158;51.436;-2.742;2023-02-27T02:51:58;5.65;;;3.92;;
33862;SDS011;20158;51.436;-2.742;2023-02-27T02:54:39;7.10;;;4.18;;
33862;SDS011;20158;51.436;-2.742;2023-02-27T02:57:12;4.88;;;3.60;;
33862;SDS011;20158;51.436;-2.742;2023-02-27T03:02:49;6.50;;;4.13;;
33862;SDS011;20158;51.436;-2.742;2023-02-27T03:05:23;5.95;;;4.10;;
33862;SDS011;20158;51.436;-2.742;2023-02-27T03:08:17;6.78;;;3.92;;
33862;SDS011;20158;51.436;-2.742;2023-02-27T03:10:57;6.25;;;3.97;;
33862;SDS011;20158;51.436;-2.742;2023-02-27T03:18:52;7.75;;;4.35;;
33862;SDS011;20158;51.436;-2.742;2023-02-27T03:21:29;6.63;;;3.92;;
33862;SDS011;20158;51.436;-2.742;2023-02-27T03:24:02;5.20;;;4.18;;
33862;SDS011;20158;51.436;-2.742;2023-02-27T03:26:37;5.73;;;3.40;;
33862;SDS011;20158;51.436;-2.742;2023-02-27T03:34:18;6.53;;;3.72;;
33862;SDS011;20158;51.436;-2.742;2023-02-27T03:36:59;8.40;;;4.03;;
33862;SDS011;20158;51.436;-2.742;2023-02-27T03:47:53;6.35;;;4.20;;
33862;SDS011;20158;51.436;-2.742;2023-02-27T03:50:19;7.45;;;4.25;;
33862;SDS011;20158;51.436;-2.742;2023-02-27T03:52:46;7.28;;;4.13;;
33862;SDS011;20158;51.436;-2.742;2023-02-27T03:55:20;7.13;;;3.60;;
33862;SDS011;20158;51.436;-2.742;2023-02-27T03:57:51;7.00;;;3.90;;
33862;SDS011;20158;51.436;-2.742;2023-02-27T04:00:22;6.70;;;3.97;;
33862;SDS011;20158;51.436;-2.742;2023-02-27T04:02:50;6.50;;;4.00;;
33862;SDS011;20158;51.436;-2.742;2023-02-27T04:05:21;6.18;;;3.70;;
33862;SDS011;20158;51.436;-2.742;2023-02-27T04:08:21;5.57;;;3.95;;
33862;SDS011;20158;51.436;-2.742;2023-02-27T04:13:58;7.38;;;3.45;;
33862;SDS011;20158;51.436;-2.742;2023-02-27T04:24:59;6.78;;;3.88;;
33862;SDS011;20158;51.436;-2.742;2023-02-27T04:31:09;6.95;;;4.35;;
33862;SDS011;20158;51.436;-2.742;2023-02-27T04:34:15;7.97;;;4.25;;
33862;SDS011;20158;51.436;-2.742;2023-02-27T04:36:44;5.63;;;3.92;;
33862;SDS011;20158;51.436;-2.742;2023-02-27T04:39:25;5.13;;;3.90;;
33862;SDS011;20158;51.436;-2.742;2023-02-27T04:41:59;9.88;;;4.22;;
33862;SDS011;20158;51.436;-2.742;2023-02-27T04:44:45;7.45;;;4.00;;
33862;SDS011;20158;51.436;-2.742;2023-02-27T04:47:14;7.95;;;4.45;;
33862;SDS011;20158;51.436;-2.742;2023-02-27T04:49:45;8.00;;;4.55;;
33862;SDS011;20158;51.436;-2.742;2023-02-27T04:52:40;6.32;;;4.78;;
33862;SDS011;20158;51.436;-2.742;2023-02-27T04:55:14;6.82;;;5.10;;
33862;SDS011;20158;51.436;-2.742;2023-02-27T04:57:54;9.85;;;4.43;;
33862;SDS011;20158;51.436;-2.742;2023-02-27T05:00:34;10.40;;;4.45;;
33862;SDS011;20158;51.436;-2.742;2023-02-27T05:03:07;7.20;;;5.00;;
33862;SDS011;20158;51.436;-2.742;2023-02-27T05:05:37;8.65;;;4.18;;
33862;SDS011;20158;51.436;-2.742;2023-02-27T05:08:08;7.25;;;4.20;;
33862;SDS011;20158;51.436;-2.742;2023-02-27T05:13:26;6.90;;;4.40;;
33862;SDS011;20158;51.436;-2.742;2023-02-27T05:16:02;10.73;;;5.25;;
33862;SDS011;20158;51.436;-2.742;2023-02-27T05:18:53;8.50;;;4.53;;
33862;SDS011;20158;51.436;-2.742;2023-02-27T05:21:27;8.02;;;4.38;;
33862;SDS011;20158;51.436;-2.742;2023-02-27T05:24:12;6.80;;;3.95;;
33862;SDS011;20158;51.436;-2.742;2023-02-27T05:29:47;10.20;;;4.93;;
33862;SDS011;20158;51.436;-2.742;2023-02-27T05:32:21;9.93;;;4.80;;
33862;SDS011;20158;51.436;-2.742;2023-02-27T05:37:55;9.05;;;5.40;;
33862;SDS011;20158;51.436;-2.742;2023-02-27T05:40:32;12.20;;;4.93;;
33862;SDS011;20158;51.436;-2.742;2023-02-27T05:45:34;7.25;;;4.72;;
33862;SDS011;20158;51.436;-2.742;2023-02-27T05:48:07;8.55;;;5.22;;
33862;SDS011;20158;51.436;-2.742;2023-02-27T05:50:37;7.55;;;5.00;;
33862;SDS011;20158;51.436;-2.742;2023-02-27T05:53:06;10.20;;;5.03;;
33862;SDS011;20158;51.436;-2.742;2023-02-27T05:55:43;8.20;;;5.60;;
33862;SDS011;20158;51.436;-2.742;2023-02-27T05:58:28;9.82;;;5.13;;
33862;SDS011;20158;51.436;-2.742;2023-02-27T06:01:05;11.35;;;6.15;;
33862;SDS011;20158;51.436;-2.742;2023-02-27T06:03:34;7.22;;;5.47;;
33862;SDS011;20158;51.436;-2.742;2023-02-27T06:06:02;6.50;;;4.68;;
33862;SDS011;20158;51.436;-2.742;2023-02-27T06:08:30;7.90;;;4.88;;
33862;SDS011;20158;51.436;-2.742;2023-02-27T06:10:57;16.92;;;5.57;;
33862;SDS011;20158;51.436;-2.742;2023-02-27T06:13:23;7.40;;;5.25;;
33862;SDS011;20158;51.436;-2.742;2023-02-27T06:15:50;5.90;;;5.13;;
33862;SDS011;20158;51.436;-2.742;2023-02-27T06:18:17;7.03;;;5.13;;
33862;SDS011;20158;51.436;-2.742;2023-02-27T06:20:44;8.80;;;5.32;;
33862;SDS011;20158;51.436;-2.742;2023-02-27T06:23:10;8.90;;;4.75;;
33862;SDS011;20158;51.436;-2.742;2023-02-27T06:25:37;8.68;;;5.05;;
33862;SDS011;20158;51.436;-2.742;2023-02-27T06:28:03;9.63;;;5.50;;
33862;SDS011;20158;51.436;-2.742;2023-02-27T06:30:30;9.02;;;6.45;;
33862;SDS011;20158;51.436;-2.742;2023-02-27T06:32:56;9.43;;;5.55;;
33862;SDS011;20158;51.436;-2.742;2023-02-27T06:35:22;8.45;;;5.65;;
33862;SDS011;20158;51.436;-2.742;2023-02-27T06:37:48;10.02;;;5.80;;
33862;SDS011;20158;51.436;-2.742;2023-02-27T06:40:14;8.65;;;5.22;;
33862;SDS011;20158;51.436;-2.742;2023-02-27T06:42:41;8.55;;;5.78;;
33862;SDS011;20158;51.436;-2.742;2023-02-27T06:45:08;9.80;;;5.75;;
33862;SDS011;20158;51.436;-2.742;2023-02-27T06:47:39;8.18;;;5.32;;
33862;SDS011;20158;51.436;-2.742;2023-02-27T06:50:06;8.38;;;5.18;;
33862;SDS011;20158;51.436;-2.742;2023-02-27T06:52:35;8.52;;;5.80;;
33862;SDS011;20158;51.436;-2.742;2023-02-27T06:55:03;7.53;;;5.65;;
33862;SDS011;20158;51.436;-2.742;2023-02-27T06:57:30;9.45;;;5.60;;
33862;SDS011;20158;51.436;-2.742;2023-02-27T06:59:56;11.85;;;5.40;;
33862;SDS011;20158;51.436;-2.742;2023-02-27T07:02:22;9.70;;;5.45;;
33862;SDS011;20158;51.436;-2.742;2023-02-27T07:04:50;9.25;;;5.22;;
33862;SDS011;20158;51.436;-2.742;2023-02-27T07:07:16;12.57;;;6.05;;
33862;SDS011;20158;51.436;-2.742;2023-02-27T07:09:42;9.40;;;5.38;;
33862;SDS011;20158;51.436;-2.742;2023-02-27T07:12:08;13.52;;;5.90;;
33862;SDS011;20158;51.436;-2.742;2023-02-27T07:14:34;7.88;;;5.53;;
33862;SDS011;20158;51.436;-2.742;2023-02-27T07:17:00;13.40;;;5.32;;
33862;SDS011;20158;51.436;-2.742;2023-02-27T07:19:29;9.02;;;5.53;;
33862;SDS011;20158;51.436;-2.742;2023-02-27T07:21:56;10.35;;;6.22;;
33862;SDS011;20158;51.436;-2.742;2023-02-27T07:24:22;7.20;;;6.00;;
33862;SDS011;20158;51.436;-2.742;2023-02-27T07:26:48;10.93;;;6.03;;
33862;SDS011;20158;51.436;-2.742;2023-02-27T07:29:14;9.70;;;6.70;;
33862;SDS011;20158;51.436;-2.742;2023-02-27T07:31:40;8.63;;;6.25;;
33862;SDS011;20158;51.436;-2.742;2023-02-27T07:34:06;7.00;;;6.05;;
33862;SDS011;20158;51.436;-2.742;2023-02-27T07:36:33;7.85;;;5.93;;
33862;SDS011;20158;51.436;-2.742;2023-02-27T07:38:59;9.35;;;6.72;;
33862;SDS011;20158;51.436;-2.742;2023-02-27T07:41:27;7.88;;;6.32;;
33862;SDS011;20158;51.436;-2.742;2023-02-27T07:43:53;9.07;;;7.22;;
33862;SDS011;20158;51.436;-2.742;2023-02-27T07:46:19;8.95;;;6.82;;
33862;SDS011;20158;51.436;-2.742;2023-02-27T07:48:47;8.23;;;6.55;;
33862;SDS011;20158;51.436;-2.742;2023-02-27T07:51:13;9.60;;;7.20;;
33862;SDS011;20158;51.436;-2.742;2023-02-27T07:53:39;10.55;;;7.22;;
33862;SDS011;20158;51.436;-2.742;2023-02-27T07:56:05;9.98;;;7.50;;
33862;SDS011;20158;51.436;-2.742;2023-02-27T07:58:32;12.02;;;7.45;;
33862;SDS011;20158;51.436;-2.742;2023-02-27T08:00:57;9.45;;;7.22;;
33862;SDS011;20158;51.436;-2.742;2023-02-27T08:03:23;8.52;;;6.40;;
33862;SDS011;20158;51.436;-2.742;2023-02-27T08:05:49;11.35;;;7.70;;
33862;SDS011;20158;51.436;-2.742;2023-02-27T08:08:15;10.05;;;7.13;;
33862;SDS011;20158;51.436;-2.742;2023-02-27T08:10:41;11.40;;;7.72;;
33862;SDS011;20158;51.436;-2.742;2023-02-27T08:13:08;10.80;;;7.82;;
33862;SDS011;20158;51.436;-2.742;2023-02-27T08:15:34;11.60;;;9.00;;
33862;SDS011;20158;51.436;-2.742;2023-02-27T08:17:59;11.70;;;8.25;;
33862;SDS011;20158;51.436;-2.742;2023-02-27T08:20:25;10.07;;;8.32;;
33862;SDS011;20158;51.436;-2.742;2023-02-27T08:22:52;10.13;;;8.45;;
33862;SDS011;20158;51.436;-2.742;2023-02-27T08:25:17;10.43;;;7.88;;
33862;SDS011;20158;51.436;-2.742;2023-02-27T08:27:44;8.75;;;7.85;;
33862;SDS011;20158;51.436;-2.742;2023-02-27T08:30:10;11.75;;;8.80;;
33862;SDS011;20158;51.436;-2.742;2023-02-27T08:32:37;9.40;;;7.03;;
33862;SDS011;20158;51.436;-2.742;2023-02-27T08:35:03;10.07;;;8.45;;
33862;SDS011;20158;51.436;-2.742;2023-02-27T08:37:30;10.85;;;8.27;;
33862;SDS011;20158;51.436;-2.742;2023-02-27T08:39:56;10.35;;;9.00;;
33862;SDS011;20158;51.436;-2.742;2023-02-27T08:42:22;8.98;;;8.10;;
33862;SDS011;20158;51.436;-2.742;2023-02-27T08:44:47;9.20;;;8.18;;
33862;SDS011;20158;51.436;-2.742;2023-02-27T08:47:15;10.35;;;8.10;;
33862;SDS011;20158;51.436;-2.742;2023-02-27T08:49:41;12.60;;;8.57;;
33862;SDS011;20158;51.436;-2.742;2023-02-27T08:52:07;9.40;;;8.32;;
33862;SDS011;20158;51.436;-2.742;2023-02-27T08:54:34;10.95;;;8.40;;
33862;SDS011;20158;51.436;-2.742;2023-02-27T08:57:01;10.48;;;8.73;;
33862;SDS011;20158;51.436;-2.742;2023-02-27T08:59:28;9.35;;;7.90;;
33862;SDS011;20158;51.436;-2.742;2023-02-27T09:01:54;15.18;;;9.48;;
33862;SDS011;20158;51.436;-2.742;2023-02-27T09:04:20;8.85;;;7.88;;
33862;SDS011;20158;51.436;-2.742;2023-02-27T09:06:46;9.02;;;7.65;;
33862;SDS011;20158;51.436;-2.742;2023-02-27T09:09:13;11.18;;;8.93;;
33862;SDS011;20158;51.436;-2.742;2023-02-27T09:11:39;11.27;;;8.15;;
33862;SDS011;20158;51.436;-2.742;2023-02-27T09:14:05;9.52;;;7.65;;
33862;SDS011;20158;51.436;-2.742;2023-02-27T09:16:31;10.35;;;8.95;;
33862;SDS011;20158;51.436;-2.742;2023-02-27T09:18:57;8.95;;;7.18;;
33862;SDS011;20158;51.436;-2.742;2023-02-27T09:21:23;11.52;;;7.88;;
33862;SDS011;20158;51.436;-2.742;2023-02-27T09:23:51;10.75;;;8.70;;
33862;SDS011;20158;51.436;-2.742;2023-02-27T09:26:17;9.45;;;8.20;;
33862;SDS011;20158;51.436;-2.742;2023-02-27T09:28:43;10.60;;;8.18;;
33862;SDS011;20158;51.436;-2.742;2023-02-27T09:31:09;11.15;;;8.90;;
33862;SDS011;20158;51.436;-2.742;2023-02-27T09:33:36;8.65;;;7.85;;
33862;SDS011;20158;51.436;-2.742;2023-02-27T09:36:06;12.50;;;9.02;;
33862;SDS011;20158;51.436;-2.742;2023-02-27T09:38:32;8.40;;;7.50;;
33862;SDS011;20158;51.436;-2.742;2023-02-27T09:40:59;8.77;;;7.85;;
33862;SDS011;20158;51.436;-2.742;2023-02-27T09:43:33;8.63;;;7.45;;
33862;SDS011;20158;51.436;-2.742;2023-02-27T09:46:08;8.93;;;7.30;;
33862;SDS011;20158;51.436;-2.742;2023-02-27T09:48:56;10.20;;;8.27;;
33862;SDS011;20158;51.436;-2.742;2023-02-27T09:51:25;9.00;;;7.90;;
33862;SDS011;20158;51.436;-2.742;2023-02-27T09:53:53;8.35;;;7.63;;
33862;SDS011;20158;51.436;-2.742;2023-02-27T09:56:35;10.40;;;7.60;;
33862;SDS011;20158;51.436;-2.742;2023-02-27T09:59:41;9.20;;;7.95;;
33862;SDS011;20158;51.436;-2.742;2023-02-27T10:07:40;8.25;;;7.47;;
33862;SDS011;20158;51.436;-2.742;2023-02-27T10:15:31;10.00;;;7.47;;
33862;SDS011;20158;51.436;-2.742;2023-02-27T10:20:42;12.52;;;8.63;;
33862;SDS011;20158;51.436;-2.742;2023-02-27T10:23:24;8.63;;;7.72;;
33862;SDS011;20158;51.436;-2.742;2023-02-27T10:25:54;7.78;;;7.05;;
33862;SDS011;20158;51.436;-2.742;2023-02-27T10:28:21;11.40;;;8.15;;
33862;SDS011;20158;51.436;-2.742;2023-02-27T10:30:49;8.35;;;7.53;;
33862;SDS011;20158;51.436;-2.742;2023-02-27T10:33:21;7.63;;;6.93;;
33862;SDS011;20158;51.436;-2.742;2023-02-27T10:35:56;7.40;;;6.70;;
33862;SDS011;20158;51.436;-2.742;2023-02-27T10:38:27;7.55;;;6.85;;
33862;SDS011;20158;51.436;-2.742;2023-02-27T10:40:55;9.65;;;7.95;;
33862;SDS011;20158;51.436;-2.742;2023-02-27T10:43:22;9.75;;;7.85;;
33862;SDS011;20158;51.436;-2.742;2023-02-27T10:45:48;7.60;;;6.80;;
33862;SDS011;20158;51.436;-2.742;2023-02-27T10:48:14;8.65;;;7.85;;
33862;SDS011;20158;51.436;-2.742;2023-02-27T10:50:42;9.50;;;7.97;;
33862;SDS011;20158;51.436;-2.742;2023-02-27T10:53:43;8.57;;;7.20;;
33862;SDS011;20158;51.436;-2.742;2023-02-27T10:56:03;7.65;;;6.93;;
33862;SDS011;20158;51.436;-2.742;2023-02-27T10:58:38;8.07;;;7.30;;
33862;SDS011;20158;51.436;-2.742;2023-02-27T11:01:05;10.48;;;8.13;;
33862;SDS011;20158;51.436;-2.742;2023-02-27T11:03:39;8.65;;;6.97;;
33862;SDS011;20158;51.436;-2.742;2023-02-27T11:08:38;10.90;;;7.65;;
33862;SDS011;20158;51.436;-2.742;2023-02-27T11:13:32;8.18;;;7.38;;
33862;SDS011;20158;51.436;-2.742;2023-02-27T11:16:14;7.63;;;6.83;;
33862;SDS011;20158;51.436;-2.742;2023-02-27T11:18:46;6.88;;;6.13;;
33862;SDS011;20158;51.436;-2.742;2023-02-27T11:21:29;7.63;;;6.68;;
33862;SDS011;20158;51.436;-2.742;2023-02-27T11:23:59;7.85;;;7.15;;
33862;SDS011;20158;51.436;-2.742;2023-02-27T11:26:34;7.03;;;6.43;;
33862;SDS011;20158;51.436;-2.742;2023-02-27T11:29:14;7.43;;;6.72;;
33862;SDS011;20158;51.436;-2.742;2023-02-27T11:31:53;7.78;;;6.63;;
33862;SDS011;20158;51.436;-2.742;2023-02-27T11:36:55;7.07;;;6.38;;
33862;SDS011;20158;51.436;-2.742;2023-02-27T11:42:27;6.47;;;5.60;;
33862;SDS011;20158;51.436;-2.742;2023-02-27T11:44:57;8.23;;;6.38;;
33862;SDS011;20158;51.436;-2.742;2023-02-27T11:47:32;8.38;;;6.70;;
33862;SDS011;20158;51.436;-2.742;2023-02-27T11:55:25;10.18;;;6.55;;
33862;SDS011;20158;51.436;-2.742;2023-02-27T11:57:55;7.80;;;6.85;;
33862;SDS011;20158;51.436;-2.742;2023-02-27T12:00:32;7.18;;;6.47;;
33862;SDS011;20158;51.436;-2.742;2023-02-27T12:03:27;7.35;;;5.93;;
33862;SDS011;20158;51.436;-2.742;2023-02-27T12:06:20;7.70;;;6.25;;
33862;SDS011;20158;51.436;-2.742;2023-02-27T12:08:58;7.10;;;5.72;;
33862;SDS011;20158;51.436;-2.742;2023-02-27T12:11:38;7.15;;;5.47;;
33862;SDS011;20158;51.436;-2.742;2023-02-27T12:16:58;5.85;;;5.18;;
33862;SDS011;20158;51.436;-2.742;2023-02-27T12:19:47;6.00;;;5.40;;
33862;SDS011;20158;51.436;-2.742;2023-02-27T12:22:26;5.20;;;4.43;;
33862;SDS011;20158;51.436;-2.742;2023-02-27T12:27:45;5.63;;;5.00;;
33862;SDS011;20158;51.436;-2.742;2023-02-27T12:30:23;6.60;;;5.00;;
33862;SDS011;20158;51.436;-2.742;2023-02-27T12:35:27;6.70;;;5.25;;
33862;SDS011;20158;51.436;-2.742;2023-02-27T12:37:55;5.28;;;4.70;;
33862;SDS011;20158;51.436;-2.742;2023-02-27T12:40:25;5.53;;;4.85;;
33862;SDS011;20158;51.436;-2.742;2023-02-27T12:53:22;5.35;;;4.88;;
33862;SDS011;20158;51.436;-2.742;2023-02-27T12:56:14;5.82;;;4.85;;
33862;SDS011;20158;51.436;-2.742;2023-02-27T13:01:52;5.53;;;5.03;;
33862;SDS011;20158;51.436;-2.742;2023-02-27T13:07:08;5.28;;;4.43;;
33862;SDS011;20158;51.436;-2.742;2023-02-27T13:09:57;6.82;;;4.00;;
33862;SDS011;20158;51.436;-2.742;2023-02-27T13:12:41;5.72;;;4.10;;
33862;SDS011;20158;51.436;-2.742;2023-02-27T13:15:22;4.55;;;4.13;;
33862;SDS011;20158;51.436;-2.742;2023-02-27T13:17:56;6.10;;;4.07;;
33862;SDS011;20158;51.436;-2.742;2023-02-27T13:20:43;4.00;;;3.65;;
33862;SDS011;20158;51.436;-2.742;2023-02-27T13:25:52;3.45;;;3.15;;
33862;SDS011;20158;51.436;-2.742;2023-02-27T13:28:34;5.82;;;3.03;;
33862;SDS011;20158;51.436;-2.742;2023-02-27T13:31:05;3.60;;;2.92;;
33862;SDS011;20158;51.436;-2.742;2023-02-27T13:33:49;3.85;;;3.00;;
33862;SDS011;20158;51.436;-2.742;2023-02-27T13:45:04;2.65;;;2.45;;
33862;SDS011;20158;51.436;-2.742;2023-02-27T13:47:51;2.92;;;2.30;;
33862;SDS011;20158;51.436;-2.742;2023-02-27T13:52:43;3.83;;;2.45;;
33862;SDS011;20158;51.436;-2.742;2023-02-27T13:55:30;4.07;;;2.10;;
33862;SDS011;20158;51.436;-2.742;2023-02-27T13:58:01;3.00;;;2.60;;
33862;SDS011;20158;51.436;-2.742;2023-02-27T14:00:30;3.80;;;2.80;;
33862;SDS011;20158;51.436;-2.742;2023-02-27T14:11:29;3.50;;;3.15;;
33862;SDS011;20158;51.436;-2.742;2023-02-27T14:24:53;3.10;;;2.80;;
33862;SDS011;20158;51.436;-2.742;2023-02-27T14:27:23;4.15;;;2.63;;
33862;SDS011;20158;51.436;-2.742;2023-02-27T14:29:53;4.68;;;3.15;;
33862;SDS011;20158;51.436;-2.742;2023-02-27T14:32:28;3.88;;;3.47;;
33862;SDS011;20158;51.436;-2.742;2023-02-27T14:34:58;3.03;;;2.60;;
33862;SDS011;20158;51.436;-2.742;2023-02-27T14:37:27;3.75;;;3.40;;
33862;SDS011;20158;51.436;-2.742;2023-02-27T14:39:55;3.55;;;2.78;;
33862;SDS011;20158;51.436;-2.742;2023-02-27T14:45:10;2.72;;;2.50;;
33862;SDS011;20158;51.436;-2.742;2023-02-27T14:47:38;2.95;;;2.75;;
33862;SDS011;20158;51.436;-2.742;2023-02-27T14:50:06;3.13;;;2.90;;
33862;SDS011;20158;51.436;-2.742;2023-02-27T14:52:45;3.55;;;2.92;;
33862;SDS011;20158;51.436;-2.742;2023-02-27T14:55:14;3.80;;;2.72;;
33862;SDS011;20158;51.436;-2.742;2023-02-27T15:00:42;2.70;;;2.50;;
33862;SDS011;20158;51.436;-2.742;2023-02-27T15:03:34;3.03;;;2.65;;
33862;SDS011;20158;51.436;-2.742;2023-02-27T15:06:16;3.25;;;3.00;;
33862;SDS011;20158;51.436;-2.742;2023-02-27T15:08:49;3.33;;;3.03;;
33862;SDS011;20158;51.436;-2.742;2023-02-27T15:11:18;3.38;;;2.67;;
33862;SDS011;20158;51.436;-2.742;2023-02-27T15:13:46;3.38;;;2.83;;
33862;SDS011;20158;51.436;-2.742;2023-02-27T15:18:48;2.92;;;2.72;;
33862;SDS011;20158;51.436;-2.742;2023-02-27T15:21:16;2.50;;;2.30;;
33862;SDS011;20158;51.436;-2.742;2023-02-27T15:23:52;2.92;;;2.65;;
33862;SDS011;20158;51.436;-2.742;2023-02-27T15:26:19;2.55;;;2.35;;
33862;SDS011;20158;51.436;-2.742;2023-02-27T15:28:46;2.72;;;2.53;;
33862;SDS011;20158;51.436;-2.742;2023-02-27T15:31:18;3.05;;;2.70;;
33862;SDS011;20158;51.436;-2.742;2023-02-27T15:33:50;2.55;;;2.22;;
33862;SDS011;20158;51.436;-2.742;2023-02-27T15:36:18;2.55;;;2.28;;
33862;SDS011;20158;51.436;-2.742;2023-02-27T15:41:49;2.15;;;2.00;;
33862;SDS011;20158;51.436;-2.742;2023-02-27T15:44:25;2.75;;;2.20;;
33862;SDS011;20158;51.436;-2.742;2023-02-27T15:46:54;1.67;;;1.52;;
33862;SDS011;20158;51.436;-2.742;2023-02-27T15:49:22;2.53;;;2.33;;
33862;SDS011;20158;51.436;-2.742;2023-02-27T15:51:59;2.85;;;2.20;;
33862;SDS011;20158;51.436;-2.742;2023-02-27T15:54:41;2.13;;;1.77;;
33862;SDS011;20158;51.436;-2.742;2023-02-27T15:57:19;2.58;;;1.90;;
33862;SDS011;20158;51.436;-2.742;2023-02-27T15:59:47;2.00;;;1.90;;
33862;SDS011;20158;51.436;-2.742;2023-02-27T16:02:16;2.45;;;2.03;;
33862;SDS011;20158;51.436;-2.742;2023-02-27T16:04:46;2.55;;;1.90;;
33862;SDS011;20158;51.436;-2.742;2023-02-27T16:07:19;2.45;;;1.98;;
33862;SDS011;20158;51.436;-2.742;2023-02-27T16:09:48;1.85;;;1.75;;
33862;SDS011;20158;51.436;-2.742;2023-02-27T16:12:36;2.72;;;1.85;;
33862;SDS011;20158;51.436;-2.742;2023-02-27T16:20:48;1.77;;;1.58;;
33862;SDS011;20158;51.436;-2.742;2023-02-27T16:25:59;2.05;;;1.90;;
33862;SDS011;20158;51.436;-2.742;2023-02-27T16:28:45;2.83;;;1.40;;
33862;SDS011;20158;51.436;-2.742;2023-02-27T16:31:23;2.95;;;1.42;;
33862;SDS011;20158;51.436;-2.742;2023-02-27T16:33:55;2.25;;;2.08;;
33862;SDS011;20158;51.436;-2.742;2023-02-27T16:36:24;1.83;;;1.20;;
33862;SDS011;20158;51.436;-2.742;2023-02-27T16:38:53;1.25;;;1.15;;
33862;SDS011;20158;51.436;-2.742;2023-02-27T16:41:20;1.45;;;1.27;;
33862;SDS011;20158;51.436;-2.742;2023-02-27T16:43:47;1.40;;;1.30;;
33862;SDS011;20158;51.436;-2.742;2023-02-27T16:46:14;2.70;;;1.50;;
33862;SDS011;20158;51.436;-2.742;2023-02-27T16:48:47;1.50;;;1.40;;
33862;SDS011;20158;51.436;-2.742;2023-02-27T16:51:18;2.80;;;1.40;;
33862;SDS011;20158;51.436;-2.742;2023-02-27T16:53:48;5.32;;;2.40;;
33862;SDS011;20158;51.436;-2.742;2023-02-27T16:56:15;3.90;;;1.75;;
33862;SDS011;20158;51.436;-2.742;2023-02-27T16:58:42;2.20;;;1.42;;
33862;SDS011;20158;51.436;-2.742;2023-02-27T17:01:09;1.63;;;1.38;;
33862;SDS011;20158;51.436;-2.742;2023-02-27T17:03:38;3.55;;;1.33;;
33862;SDS011;20158;51.436;-2.742;2023-02-27T17:06:05;1.90;;;1.45;;
33862;SDS011;20158;51.436;-2.742;2023-02-27T17:08:32;3.13;;;1.20;;
33862;SDS011;20158;51.436;-2.742;2023-02-27T17:10:59;2.80;;;1.75;;
33862;SDS011;20158;51.436;-2.742;2023-02-27T17:13:25;1.30;;;1.20;;
33862;SDS011;20158;51.436;-2.742;2023-02-27T17:15:51;4.03;;;2.03;;
33862;SDS011;20158;51.436;-2.742;2023-02-27T17:18:17;1.98;;;1.15;;
33862;SDS011;20158;51.436;-2.742;2023-02-27T17:20:44;2.50;;;1.52;;
33862;SDS011;20158;51.436;-2.742;2023-02-27T17:23:10;1.55;;;1.10;;
33862;SDS011;20158;51.436;-2.742;2023-02-27T17:25:36;2.55;;;1.33;;
33862;SDS011;20158;51.436;-2.742;2023-02-27T17:28:06;3.33;;;1.55;;
33862;SDS011;20158;51.436;-2.742;2023-02-27T17:30:32;1.42;;;1.20;;
33862;SDS011;20158;51.436;-2.742;2023-02-27T17:32:58;2.55;;;1.23;;
33862;SDS011;20158;51.436;-2.742;2023-02-27T17:35:23;1.38;;;1.00;;
33862;SDS011;20158;51.436;-2.742;2023-02-27T17:37:50;2.72;;;1.75;;
33862;SDS011;20158;51.436;-2.742;2023-02-27T17:40:16;4.72;;;1.73;;
33862;SDS011;20158;51.436;-2.742;2023-02-27T17:42:42;3.88;;;1.40;;
33862;SDS011;20158;51.436;-2.742;2023-02-27T17:45:08;4.15;;;1.55;;
33862;SDS011;20158;51.436;-2.742;2023-02-27T17:47:34;2.35;;;1.30;;
33862;SDS011;20158;51.436;-2.742;2023-02-27T17:50:00;2.17;;;1.27;;
33862;SDS011;20158;51.436;-2.742;2023-02-27T17:52:28;1.67;;;1.30;;